Time;durP1;ratioP1;P1;durP2;ratioP2;P2;SDS_P1;SDS_P2;PMS_P1;PMS_P2;Temp;Humidity;BMP_temperature;BMP_pressure;BME280_temperature;BME280_humidity;BME280_pressure;Samples;Min_cycle;Max_cycle;Signal;HPM_P1;HPM_P2
2021/07/12 00:01:30;;;;;;;12.52;6.60;;;26.60;68.60;;;;;;5099321;28;20035;-74
2021/07/12 00:03:56;;;;;;;15.00;7.82;;;26.50;68.20;;;;;;5099416;28;20027;-75
2021/07/12 00:06:21;;;;;;;15.98;6.65;;;26.50;68.20;;;;;;5099135;28;20020;-74
2021/07/12 00:08:47;;;;;;;16.98;7.35;;;26.50;68.10;;;;;;5099265;28;20024;-74
2021/07/12 00:11:13;;;;;;;14.25;6.38;;;26.50;68.10;;;;;;5099209;28;20020;-73
2021/07/12 00:13:39;;;;;;;11.10;5.95;;;26.60;68.10;;;;;;5099203;28;20116;-75
2021/07/12 00:16:05;;;;;;;10.63;5.75;;;26.60;68.20;;;;;;5099332;28;20109;-74
2021/07/12 00:18:31;;;;;;;11.52;6.55;;;26.50;68.40;;;;;;5098991;28;20023;-74
2021/07/12 00:20:57;;;;;;;12.90;6.45;;;26.50;68.30;;;;;;5098973;28;20426;-74
2021/07/12 00:23:22;;;;;;;10.95;6.30;;;26.50;68.70;;;;;;5099206;28;20317;-76
2021/07/12 00:25:48;;;;;;;13.90;6.43;;;26.50;68.50;;;;;;5098801;28;20055;-74
2021/07/12 00:28:14;;;;;;;11.88;6.53;;;26.50;68.60;;;;;;5099128;28;20020;-74
2021/07/12 00:30:40;;;;;;;10.75;4.65;;;26.50;69.50;;;;;;5099211;28;20056;-74
2021/07/12 00:33:06;;;;;;;13.45;6.13;;;26.50;69.50;;;;;;5098045;28;20036;-76
2021/07/12 00:35:32;;;;;;;14.52;6.78;;;26.40;69.80;;;;;;5099392;28;20028;-75
2021/07/12 00:37:58;;;;;;;14.38;7.07;;;26.40;69.50;;;;;;5099292;28;20444;-74
2021/07/12 00:40:25;;;;;;;17.48;6.93;;;26.40;69.80;;;;;;5099007;28;20075;-74
2021/07/12 00:42:51;;;;;;;13.48;7.60;;;26.40;69.80;;;;;;5099007;28;20428;-74
2021/07/12 00:45:28;;;;;;;16.55;8.07;;;26.40;70.00;;;;;;5096744;28;20100;-75
2021/07/12 00:47:55;;;;;;;14.15;8.25;;;26.30;70.10;;;;;;5095877;28;20086;-75
2021/07/12 00:50:22;;;;;;;19.25;8.30;;;26.30;70.10;;;;;;5095763;28;20119;-74
2021/07/12 00:52:50;;;;;;;15.82;8.35;;;26.30;70.20;;;;;;5095437;28;20040;-74
2021/07/12 00:55:21;;;;;;;14.52;8.00;;;26.30;70.20;;;;;;5094391;28;20081;-75
2021/07/12 00:57:48;;;;;;;14.38;7.40;;;26.30;70.20;;;;;;5095314;28;20013;-74
2021/07/12 01:00:15;;;;;;;16.25;7.85;;;26.20;70.10;;;;;;5095391;28;20036;-76
2021/07/12 01:02:41;;;;;;;13.73;7.32;;;26.20;70.20;;;;;;5095390;28;20040;-73
2021/07/12 01:05:10;;;;;;;15.20;7.28;;;26.10;70.00;;;;;;5095346;28;20063;-75
2021/07/12 01:07:36;;;;;;;16.25;5.95;;;26.10;69.70;;;;;;5095170;28;20052;-76
2021/07/12 01:10:03;;;;;;;12.60;6.10;;;26.10;69.80;;;;;;5095380;28;20071;-76
2021/07/12 01:12:39;;;;;;;16.30;6.30;;;26.10;69.90;;;;;;5095303;28;20020;-74
2021/07/12 01:15:17;;;;;;;14.90;7.00;;;26.10;70.10;;;;;;5094126;28;20028;-73
2021/07/12 01:18:08;;;;;;;11.63;6.85;;;26.00;69.90;;;;;;5095351;28;20492;-76
2021/07/12 01:21:12;;;;;;;14.00;7.28;;;25.90;69.70;;;;;;5095187;28;20044;-73
2021/07/12 01:24:06;;;;;;;13.77;6.50;;;25.80;69.80;;;;;;5095080;28;20059;-75
2021/07/12 01:26:57;;;;;;;13.00;6.77;;;25.80;70.10;;;;;;5095080;28;20028;-75
2021/07/12 01:29:48;;;;;;;14.40;5.85;;;25.80;69.80;;;;;;5084321;28;20066;-74
2021/07/12 01:32:37;;;;;;;12.80;6.03;;;25.80;69.70;;;;;;5095081;28;20039;-74
2021/07/12 01:35:21;;;;;;;13.05;5.80;;;25.90;70.00;;;;;;5094837;28;20020;-73
2021/07/12 01:38:05;;;;;;;13.63;5.65;;;25.90;69.30;;;;;;5094974;28;20028;-74
2021/07/12 01:40:56;;;;;;;10.57;5.03;;;25.80;69.20;;;;;;5095209;28;20028;-74
2021/07/12 01:43:33;;;;;;;15.07;5.68;;;25.80;69.00;;;;;;5094598;28;20103;-74
2021/07/12 01:46:17;;;;;;;13.13;5.28;;;25.70;68.70;;;;;;5094563;28;20492;-73
2021/07/12 01:48:57;;;;;;;14.90;5.88;;;25.70;68.60;;;;;;5094490;28;20362;-74
2021/07/12 01:51:36;;;;;;;14.23;4.82;;;25.70;68.60;;;;;;5094723;28;20059;-73
2021/07/12 01:54:10;;;;;;;16.00;5.30;;;25.60;68.60;;;;;;5094365;28;20141;-74
2021/07/12 01:56:41;;;;;;;12.50;5.10;;;25.50;68.50;;;;;;5092783;28;20355;-73
2021/07/12 01:59:24;;;;;;;14.75;5.10;;;25.50;68.50;;;;;;5093963;28;20511;-74
2021/07/12 02:01:51;;;;;;;7.88;4.90;;;25.50;68.40;;;;;;5094388;28;20085;-74
2021/07/12 02:04:22;;;;;;;12.75;4.95;;;25.50;68.30;;;;;;5094302;28;20418;-74
2021/07/12 02:06:50;;;;;;;10.93;4.45;;;25.50;68.10;;;;;;5094029;28;20044;-74
2021/07/12 02:09:16;;;;;;;12.88;4.68;;;25.50;68.50;;;;;;5094115;28;20098;-73
2021/07/12 02:11:43;;;;;;;10.13;5.10;;;25.50;68.00;;;;;;5093826;28;20453;-74
2021/07/12 02:14:10;;;;;;;11.32;4.93;;;25.50;68.10;;;;;;5092586;28;20543;-74
2021/07/12 02:16:37;;;;;;;15.32;5.00;;;25.50;68.20;;;;;;5093780;28;20032;-74
2021/07/12 02:19:04;;;;;;;10.75;4.45;;;25.40;68.20;;;;;;5093887;28;20107;-74
2021/07/12 02:21:33;;;;;;;9.25;5.03;;;25.40;68.10;;;;;;5093956;28;20107;-74
2021/07/12 02:24:04;;;;;;;10.20;4.47;;;25.40;68.00;;;;;;5093780;28;20024;-73
2021/07/12 02:26:31;;;;;;;11.27;4.47;;;25.40;68.10;;;;;;5092393;28;20031;-74
2021/07/12 02:29:02;;;;;;;13.73;4.70;;;25.40;68.00;;;;;;5093834;28;20035;-74
2021/07/12 02:31:30;;;;;;;13.55;5.22;;;25.40;68.10;;;;;;5093794;28;20077;-73
2021/07/12 02:33:58;;;;;;;13.60;5.03;;;25.30;67.80;;;;;;5093723;28;20020;-74
2021/07/12 02:36:25;;;;;;;12.88;5.05;;;25.30;68.00;;;;;;5093373;28;20024;-74
2021/07/12 02:38:55;;;;;;;9.48;4.43;;;25.30;68.10;;;;;;5093962;28;20381;-74
2021/07/12 02:41:23;;;;;;;12.80;5.10;;;25.30;68.00;;;;;;5093718;28;20024;-72
2021/07/12 02:43:49;;;;;;;13.82;5.40;;;25.30;67.90;;;;;;5093649;28;20028;-75
2021/07/12 02:46:15;;;;;;;12.02;5.20;;;25.30;67.90;;;;;;5094235;28;20107;-74
2021/07/12 02:48:41;;;;;;;10.43;4.50;;;25.30;68.10;;;;;;5094381;28;20071;-75
2021/07/12 02:51:11;;;;;;;16.48;5.38;;;25.30;68.00;;;;;;5093455;28;20017;-74
2021/07/12 02:53:44;;;;;;;11.32;5.00;;;25.20;68.00;;;;;;5093341;28;20511;-74
2021/07/12 02:56:10;;;;;;;12.60;6.90;;;25.10;68.20;;;;;;5093292;28;20381;-74
2021/07/12 02:58:37;;;;;;;14.65;5.78;;;25.10;68.20;;;;;;5093057;28;20028;-74
2021/07/12 03:01:03;;;;;;;14.57;4.85;;;25.20;68.10;;;;;;5093174;28;20064;-74
2021/07/12 03:03:29;;;;;;;10.70;5.47;;;25.20;68.10;;;;;;5093065;28;20024;-74
2021/07/12 03:06:05;;;;;;;13.38;5.93;;;25.20;68.10;;;;;;5092993;28;20107;-74
2021/07/12 03:08:51;;;;;;;12.55;6.70;;;25.20;68.40;;;;;;5092322;28;20047;-75
2021/07/12 03:11:18;;;;;;;13.77;7.15;;;25.20;68.50;;;;;;5093224;28;20024;-73
2021/07/12 03:14:07;;;;;;;11.77;6.43;;;25.20;69.10;;;;;;5093368;28;20099;-74
2021/07/12 03:16:35;;;;;;;15.18;6.90;;;25.10;69.20;;;;;;5093244;28;20042;-74
2021/07/12 03:19:04;;;;;;;14.27;6.53;;;25.00;69.50;;;;;;5094467;28;20034;-74
2021/07/12 03:21:34;;;;;;;14.68;6.65;;;25.00;69.80;;;;;;5096341;28;20035;-75
2021/07/12 03:24:01;;;;;;;12.65;5.82;;;25.00;69.80;;;;;;5097366;28;20069;-75
2021/07/12 03:26:31;;;;;;;16.13;6.63;;;24.90;70.30;;;;;;5096559;28;20388;-74
2021/07/12 03:28:57;;;;;;;12.90;6.90;;;24.90;70.10;;;;;;5093731;28;20362;-74
2021/07/12 03:31:26;;;;;;;13.88;7.15;;;24.90;70.20;;;;;;5092873;28;20483;-74
2021/07/12 03:33:53;;;;;;;13.95;6.60;;;24.90;70.30;;;;;;5091566;28;20473;-74
2021/07/12 03:36:21;;;;;;;14.63;5.45;;;24.90;70.60;;;;;;5092691;28;20031;-74
2021/07/12 03:38:50;;;;;;;12.75;4.95;;;24.80;69.90;;;;;;5091496;28;20032;-74
2021/07/12 03:41:16;;;;;;;12.45;4.68;;;24.80;69.10;;;;;;5093058;28;20119;-76
2021/07/12 03:43:42;;;;;;;9.38;4.57;;;24.80;68.90;;;;;;5092660;28;20024;-75
2021/07/12 03:46:09;;;;;;;7.97;3.90;;;24.70;68.50;;;;;;5092876;28;20050;-73
2021/07/12 03:48:46;;;;;;;11.85;5.07;;;24.70;68.20;;;;;;5092701;28;20016;-74
2021/07/12 03:51:28;;;;;;;10.90;4.57;;;24.80;68.10;;;;;;5092770;28;20416;-74
2021/07/12 03:53:55;;;;;;;11.73;4.95;;;24.70;68.10;;;;;;5093028;28;20032;-74
2021/07/12 03:56:20;;;;;;;11.45;4.45;;;24.70;67.90;;;;;;5092472;28;20360;-74
2021/07/12 03:58:47;;;;;;;12.63;5.15;;;24.80;67.70;;;;;;5092319;28;20021;-75
2021/07/12 04:01:20;;;;;;;11.88;4.60;;;24.80;67.50;;;;;;5092577;28;20377;-74
2021/07/12 04:03:50;;;;;;;11.05;5.03;;;24.80;67.20;;;;;;5092529;28;20028;-72
2021/07/12 04:06:16;;;;;;;8.30;4.30;;;24.80;67.20;;;;;;5092329;28;20060;-74
2021/07/12 04:08:42;;;;;;;12.10;4.50;;;24.80;66.50;;;;;;5091142;28;20047;-74
2021/07/12 04:11:10;;;;;;;11.27;4.28;;;24.80;66.40;;;;;;5092510;28;20036;-74
2021/07/12 04:13:37;;;;;;;11.55;4.85;;;24.80;66.20;;;;;;5092527;28;20048;-74
2021/07/12 04:16:04;;;;;;;12.07;4.60;;;24.80;66.10;;;;;;5092928;28;20036;-74
2021/07/12 04:18:32;;;;;;;10.80;3.90;;;24.70;66.30;;;;;;5092643;28;20091;-73
2021/07/12 04:21:06;;;;;;;10.93;4.38;;;24.70;66.30;;;;;;5093529;28;20104;-72
2021/07/12 04:23:31;;;;;;;;;;;24.60;66.60;;;;;;5096482;28;20024;-72
2021/07/12 04:25:57;;;;;;;9.98;4.10;;;24.60;66.20;;;;;;5096128;28;19910;-74
2021/07/12 04:28:23;;;;;;;10.48;3.80;;;24.50;66.00;;;;;;5096254;28;20100;-73
2021/07/12 04:30:51;;;;;;;8.23;3.80;;;24.50;65.80;;;;;;5096197;28;20028;-73
2021/07/12 04:33:16;;;;;;;7.25;3.70;;;24.60;65.50;;;;;;5095908;28;20056;-75
2021/07/12 04:35:42;;;;;;;9.73;3.90;;;24.60;65.40;;;;;;5096153;28;20028;-74
2021/07/12 04:38:08;;;;;;;7.95;4.22;;;24.70;64.80;;;;;;5095849;28;20021;-75
2021/07/12 04:40:34;;;;;;;13.52;3.97;;;24.70;64.00;;;;;;5095886;28;20047;-74
2021/07/12 04:43:02;;;;;;;8.82;4.05;;;24.80;63.90;;;;;;5096020;28;20024;-74
2021/07/12 04:45:27;;;;;;;8.32;3.70;;;24.70;63.60;;;;;;5095786;28;20147;-73
2021/07/12 04:47:54;;;;;;;10.95;3.72;;;24.70;63.80;;;;;;5095717;28;20108;-74
2021/07/12 04:50:20;;;;;;;9.93;4.30;;;24.70;63.60;;;;;;5096060;28;20032;-74
2021/07/12 04:52:45;;;;;;;9.63;4.00;;;24.80;63.20;;;;;;5096085;28;20027;-74
2021/07/12 04:55:11;;;;;;;8.60;4.22;;;24.80;63.60;;;;;;5096126;28;20508;-74
2021/07/12 04:57:37;;;;;;;7.18;3.85;;;24.80;63.40;;;;;;5095669;28;20020;-74
2021/07/12 05:00:07;;;;;;;10.13;4.05;;;24.90;63.10;;;;;;5095238;28;20074;-74
2021/07/12 05:02:33;;;;;;;13.27;4.47;;;24.90;63.40;;;;;;5095456;28;20024;-74
2021/07/12 05:04:59;;;;;;;13.60;4.45;;;24.90;63.30;;;;;;5095360;28;20036;-75
2021/07/12 05:07:25;;;;;;;8.43;4.47;;;24.80;63.40;;;;;;5095221;28;20032;-74
2021/07/12 05:09:52;;;;;;;11.18;4.40;;;24.90;63.70;;;;;;5095344;28;20024;-75
2021/07/12 05:12:19;;;;;;;9.60;4.18;;;25.00;64.50;;;;;;5095471;28;20111;-74
2021/07/12 05:14:45;;;;;;;8.18;4.28;;;25.10;63.40;;;;;;5095255;28;20051;-74
2021/07/12 05:17:12;;;;;;;12.50;4.40;;;25.20;63.00;;;;;;5095219;28;20035;-74
2021/07/12 05:19:40;;;;;;;17.67;4.95;;;25.20;63.00;;;;;;5095303;28;20024;-75
2021/07/12 05:22:06;;;;;;;13.73;5.38;;;25.30;62.90;;;;;;5095512;28;20032;-73
2021/07/12 05:24:35;;;;;;;13.60;5.68;;;25.40;62.70;;;;;;5095230;28;20031;-73
2021/07/12 05:27:01;;;;;;;11.30;5.50;;;25.60;62.00;;;;;;5095100;28;20024;-75
2021/07/12 05:29:34;;;;;;;10.05;4.75;;;25.70;61.60;;;;;;5095213;28;20024;-75
2021/07/12 05:31:59;;;;;;;10.13;4.53;;;26.00;61.10;;;;;;5094343;28;20031;-74
2021/07/12 05:34:27;;;;;;;11.45;4.60;;;26.30;60.10;;;;;;5095032;28;20099;-73
2021/07/12 05:36:55;;;;;;;8.52;4.13;;;26.50;58.00;;;;;;5094724;28;20113;-74
2021/07/12 05:39:21;;;;;;;10.95;3.50;;;26.80;56.50;;;;;;5094590;28;20099;-75
2021/07/12 05:41:47;;;;;;;9.02;4.10;;;27.00;55.40;;;;;;5095184;28;20149;-74
2021/07/12 05:44:12;;;;;;;11.80;3.53;;;27.20;54.50;;;;;;5095373;28;20024;-74
2021/07/12 05:46:40;;;;;;;8.70;3.63;;;27.20;54.60;;;;;;5094732;28;20465;-75
2021/07/12 05:49:05;;;;;;;11.07;4.28;;;27.50;53.80;;;;;;5093404;28;20036;-74
2021/07/12 05:51:31;;;;;;;10.50;3.80;;;27.80;53.80;;;;;;5094698;28;20016;-75
2021/07/12 05:54:02;;;;;;;11.35;3.85;;;28.10;53.60;;;;;;5094472;28;20024;-75
2021/07/12 05:56:31;;;;;;;11.73;3.92;;;28.30;53.20;;;;;;5094376;28;20035;-75
2021/07/12 05:58:57;;;;;;;11.85;4.13;;;28.50;53.20;;;;;;5094342;28;20027;-75
2021/07/12 06:01:22;;;;;;;10.13;3.90;;;28.60;53.10;;;;;;5092769;28;20123;-77
2021/07/12 06:03:48;;;;;;;9.88;3.35;;;28.70;52.80;;;;;;5094139;28;20016;-77
2021/07/12 06:06:21;;;;;;;10.60;3.28;;;28.70;52.30;;;;;;5093948;28;20547;-75
2021/07/12 06:08:47;;;;;;;9.20;3.60;;;29.00;52.00;;;;;;5094320;28;20028;-75
2021/07/12 06:11:12;;;;;;;10.75;3.75;;;29.00;51.70;;;;;;5095016;28;20054;-75
2021/07/12 06:13:45;;;;;;;8.88;3.90;;;29.20;51.70;;;;;;5094220;28;20028;-75
2021/07/12 06:16:11;;;;;;;14.07;3.72;;;29.40;50.90;;;;;;5094475;28;20091;-75
2021/07/12 06:18:37;;;;;;;17.50;4.22;;;29.50;51.10;;;;;;5094330;28;20020;-75
2021/07/12 06:21:03;;;;;;;18.92;4.43;;;29.50;50.80;;;;;;5093914;28;20508;-76
2021/07/12 06:23:28;;;;;;;10.75;3.75;;;29.70;50.70;;;;;;5093775;28;20013;-74
2021/07/12 06:25:54;;;;;;;9.90;3.38;;;29.90;50.80;;;;;;5094019;28;20028;-75
2021/07/12 06:28:26;;;;;;;9.00;3.80;;;30.00;49.70;;;;;;5093902;28;20098;-75
2021/07/12 06:30:53;;;;;;;14.45;4.45;;;30.00;49.80;;;;;;5093910;28;20103;-75
2021/07/12 06:33:21;;;;;;;15.32;3.42;;;30.10;50.30;;;;;;5094005;28;20450;-74
2021/07/12 06:35:47;;;;;;;12.60;3.83;;;30.20;50.30;;;;;;5093928;28;20028;-75
2021/07/12 06:38:13;;;;;;;12.38;3.65;;;30.30;50.00;;;;;;5095236;28;20446;-74
2021/07/12 06:40:38;;;;;;;17.85;4.00;;;30.40;49.40;;;;;;5093500;28;20032;-74
2021/07/12 06:43:04;;;;;;;10.35;3.70;;;30.50;50.10;;;;;;5091672;28;20073;-75
2021/07/12 06:45:30;;;;;;;8.40;3.22;;;30.70;50.10;;;;;;5093418;28;20434;-74
2021/07/12 06:47:55;;;;;;;14.25;4.00;;;30.70;50.20;;;;;;5093561;28;20099;-73
2021/07/12 06:50:22;;;;;;;9.90;3.80;;;30.90;50.40;;;;;;5093582;28;20028;-74
2021/07/12 06:52:50;;;;;;;16.25;4.50;;;30.90;50.40;;;;;;5093475;28;20026;-74
2021/07/12 06:55:17;;;;;;;11.93;3.60;;;30.90;50.60;;;;;;5093478;28;20073;-76
2021/07/12 06:57:42;;;;;;;9.18;3.47;;;30.90;50.50;;;;;;5093313;28;20032;-75
2021/07/12 07:00:09;;;;;;;12.35;3.47;;;31.00;50.30;;;;;;5093275;28;20043;-75
2021/07/12 07:02:37;;;;;;;12.18;3.65;;;31.10;49.70;;;;;;5093544;28;20024;-75
2021/07/12 07:05:04;;;;;;;10.20;3.67;;;31.30;50.60;;;;;;5091665;28;20027;-77
2021/07/12 07:07:30;;;;;;;9.43;3.45;;;31.40;50.00;;;;;;5092896;28;20040;-76
2021/07/12 07:09:55;;;;;;;13.57;3.78;;;31.60;50.10;;;;;;5092973;28;20058;-75
2021/07/12 07:12:21;;;;;;;10.32;3.58;;;31.70;50.30;;;;;;5093213;28;20028;-74
2021/07/12 07:14:50;;;;;;;12.85;3.83;;;31.70;50.40;;;;;;5093077;28;20042;-75
2021/07/12 07:17:15;;;;;;;19.55;4.38;;;31.70;50.10;;;;;;5093196;28;20027;-76
2021/07/12 07:19:41;;;;;;;8.63;4.10;;;31.70;50.10;;;;;;5092769;28;20020;-74
2021/07/12 07:22:07;;;;;;;12.60;4.20;;;31.80;50.70;;;;;;5092699;28;20028;-75
2021/07/12 07:24:32;;;;;;;9.98;3.70;;;31.70;49.90;;;;;;5092957;28;20024;-75
2021/07/12 07:26:58;;;;;;;11.05;3.83;;;31.70;50.30;;;;;;5092703;28;20047;-75
2021/07/12 07:29:24;;;;;;;11.00;3.58;;;31.80;49.70;;;;;;5092665;28;20059;-73
2021/07/12 07:31:50;;;;;;;14.77;3.90;;;31.80;49.70;;;;;;5091141;28;20027;-75
2021/07/12 07:34:16;;;;;;;25.23;4.75;;;31.80;49.00;;;;;;5092962;28;20020;-75
2021/07/12 07:36:42;;;;;;;19.85;4.35;;;31.80;49.50;;;;;;5092895;28;20415;-73
2021/07/12 07:39:08;;;;;;;14.57;3.92;;;31.80;49.50;;;;;;5091622;28;20024;-75
2021/07/12 07:41:36;;;;;;;19.27;3.92;;;31.70;49.70;;;;;;5094245;28;20028;-75
2021/07/12 07:44:14;;;;;;;84.65;12.77;;;31.70;49.70;;;;;;5092608;28;20020;-75
2021/07/12 07:46:47;;;;;;;23.27;7.38;;;31.70;47.40;;;;;;5092195;28;20031;-74
2021/07/12 07:49:13;;;;;;;12.23;4.50;;;31.70;49.40;;;;;;5092285;28;20495;-73
2021/07/12 07:51:41;;;;;;;11.25;3.75;;;31.70;49.20;;;;;;5092505;28;20020;-74
2021/07/12 07:54:07;;;;;;;8.73;3.25;;;31.70;49.30;;;;;;5090718;28;20024;-75
2021/07/12 07:56:33;;;;;;;12.35;4.00;;;31.70;49.50;;;;;;5095878;28;20031;-75
2021/07/12 07:58:59;;;;;;;7.40;3.25;;;31.70;49.00;;;;;;5096703;28;20035;-75
2021/07/12 08:01:25;;;;;;;11.23;3.67;;;31.60;49.00;;;;;;5096078;28;20040;-74
2021/07/12 08:03:52;;;;;;;10.77;3.38;;;31.50;48.90;;;;;;5094851;28;20074;-76
2021/07/12 08:06:18;;;;;;;15.25;3.72;;;31.50;49.20;;;;;;5096030;28;20069;-75
2021/07/12 08:08:45;;;;;;;15.82;3.50;;;31.50;49.00;;;;;;5096264;28;20032;-75
2021/07/12 08:11:11;;;;;;;11.15;3.40;;;31.50;49.20;;;;;;5096447;28;20411;-75
2021/07/12 08:13:37;;;;;;;7.40;3.20;;;31.60;49.20;;;;;;5096068;28;20051;-74
2021/07/12 08:16:06;;;;;;;9.23;3.60;;;31.60;49.10;;;;;;5095584;28;20055;-74
2021/07/12 08:18:32;;;;;;;11.63;4.22;;;31.70;48.50;;;;;;5095772;28;20020;-75
2021/07/12 08:20:57;;;;;;;14.40;4.00;;;31.70;48.50;;;;;;5095995;28;20047;-74
2021/07/12 08:23:23;;;;;;;20.35;4.63;;;31.70;48.20;;;;;;5095868;28;20016;-75
2021/07/12 08:25:50;;;;;;;21.08;3.65;;;31.70;48.10;;;;;;5095919;28;20110;-75
2021/07/12 08:28:18;;;;;;;16.23;3.42;;;31.60;48.70;;;;;;5096058;28;20024;-75
2021/07/12 08:30:45;;;;;;;13.23;3.50;;;31.60;48.50;;;;;;5096120;28;20077;-75
2021/07/12 08:33:10;;;;;;;13.68;3.40;;;31.50;48.10;;;;;;5096293;28;20373;-73
2021/07/12 08:35:36;;;;;;;7.38;2.88;;;31.50;47.70;;;;;;5095887;28;20024;-75
2021/07/12 08:38:03;;;;;;;17.38;3.92;;;31.40;47.60;;;;;;5095246;28;20031;-76
2021/07/12 08:40:30;;;;;;;12.27;3.25;;;31.40;48.10;;;;;;5094693;28;20051;-74
2021/07/12 08:42:58;;;;;;;16.33;3.97;;;31.40;47.70;;;;;;5096345;28;20097;-75
2021/07/12 08:45:25;;;;;;;14.20;4.30;;;31.30;47.70;;;;;;5095557;28;20020;-75
2021/07/12 08:47:54;;;;;;;7.45;3.10;;;31.30;47.30;;;;;;5095418;28;20024;-75
2021/07/12 08:50:21;;;;;;;5.80;2.60;;;31.30;47.00;;;;;;5095892;28;20077;-77
2021/07/12 08:52:49;;;;;;;10.75;3.25;;;31.20;46.90;;;;;;5095946;28;20169;-75
2021/07/12 08:55:16;;;;;;;11.02;3.30;;;31.30;46.50;;;;;;5095715;28;20368;-75
2021/07/12 08:58:03;;;;;;;6.05;2.60;;;31.30;44.40;;;;;;5095436;28;20028;-76
2021/07/12 09:00:41;;;;;;;7.43;2.55;;;31.20;44.30;;;;;;5095349;28;20024;-76
2021/07/12 09:03:25;;;;;;;9.05;3.10;;;31.20;44.30;;;;;;5095199;28;20123;-77
2021/07/12 09:05:56;;;;;;;7.32;2.80;;;31.10;43.90;;;;;;5094632;28;20062;-74
2021/07/12 09:08:45;;;;;;;6.65;2.78;;;31.10;45.80;;;;;;5094604;28;20048;-75
2021/07/12 09:11:29;;;;;;;15.23;3.20;;;31.10;45.20;;;;;;5095095;28;20027;-77
2021/07/12 09:13:59;;;;;;;26.63;4.10;;;31.10;44.60;;;;;;5095184;28;20111;-74
2021/07/12 09:16:31;;;;;;;7.72;2.80;;;31.10;44.80;;;;;;5095161;28;20035;-76
2021/07/12 09:19:09;;;;;;;11.70;2.80;;;31.10;42.40;;;;;;5095329;28;20028;-75
2021/07/12 09:21:44;;;;;;;7.60;2.47;;;31.10;44.30;;;;;;5094995;28;20108;-75
2021/07/12 09:24:21;;;;;;;16.77;3.60;;;31.20;43.10;;;;;;5093894;28;20020;-76
2021/07/12 09:27:06;;;;;;;23.27;4.40;;;31.30;41.30;;;;;;5094667;28;20047;-74
2021/07/12 09:29:34;;;;;;;5.70;2.30;;;31.40;40.90;;;;;;5095188;28;20449;-75
2021/07/12 09:32:03;;;;;;;8.75;2.72;;;31.40;40.20;;;;;;5094920;28;20024;-76
2021/07/12 09:34:29;;;;;;;16.05;3.00;;;31.40;40.40;;;;;;5095482;28;20032;-75
2021/07/12 09:36:55;;;;;;;12.82;3.20;;;31.40;40.00;;;;;;5095249;28;20058;-75
2021/07/12 09:39:32;;;;;;;8.23;3.30;;;31.50;42.40;;;;;;5094951;28;20055;-74
2021/07/12 09:42:13;;;;;;;9.35;3.65;;;31.50;42.40;;;;;;5094283;28;20032;-75
2021/07/12 09:44:44;;;;;;;8.48;2.95;;;31.60;43.00;;;;;;5094282;28;20032;-76
2021/07/12 09:47:16;;;;;;;10.43;3.40;;;31.60;45.40;;;;;;5094408;28;20381;-75
2021/07/12 09:49:52;;;;;;;;;;;;;;;;;;;;;
2021/07/12 09:52:20;;;;;;;9.32;3.72;;;31.70;44.30;;;;;;5094215;28;20032;-75
2021/07/12 09:54:53;;;;;;;9.30;4.00;;;31.70;43.60;;;;;;5094034;28;20457;-75
2021/07/12 09:57:21;;;;;;;6.60;2.90;;;31.80;44.20;;;;;;5094022;28;20024;-75
2021/07/12 09:59:59;;;;;;;15.93;4.10;;;31.80;45.20;;;;;;5094060;28;20054;-75
2021/07/12 10:02:28;;;;;;;9.95;3.25;;;31.90;44.00;;;;;;5093738;28;20090;-74
2021/07/12 10:05:04;;;;;;;17.27;10.20;;;32.00;44.10;;;;;;5094030;28;20028;-76
2021/07/12 10:07:33;;;;;;;12.85;4.70;;;32.00;44.50;;;;;;5092223;28;20062;-75
2021/07/12 10:10:00;;;;;;;12.50;3.60;;;32.00;44.20;;;;;;5093697;28;20017;-76
2021/07/12 10:12:27;;;;;;;10.25;3.30;;;32.00;44.40;;;;;;5093843;28;20028;-75
2021/07/12 10:14:54;;;;;;;11.35;3.10;;;32.10;43.30;;;;;;5093648;28;20107;-74
2021/07/12 10:17:21;;;;;;;12.10;2.80;;;32.10;42.40;;;;;;5093581;28;20082;-75
2021/07/12 10:19:47;;;;;;;7.07;2.53;;;32.20;42.60;;;;;;5094006;28;20346;-75
2021/07/12 10:22:14;;;;;;;7.80;2.40;;;32.20;42.50;;;;;;5094140;28;20024;-76
2021/07/12 10:24:45;;;;;;;6.43;2.88;;;32.20;42.00;;;;;;5092562;28;20028;-76
2021/07/12 10:27:25;;;;;;;11.07;3.10;;;32.20;42.20;;;;;;5093193;28;20114;-76
2021/07/12 10:29:54;;;;;;;5.93;2.63;;;32.30;43.20;;;;;;5093623;28;20169;-76
2021/07/12 10:32:25;;;;;;;9.77;2.40;;;32.40;41.70;;;;;;5093584;28;20032;-75
2021/07/12 10:34:53;;;;;;;10.40;3.08;;;32.40;42.20;;;;;;5093910;28;20024;-77
2021/07/12 10:37:38;;;;;;;12.77;2.95;;;32.50;40.30;;;;;;5093423;28;20031;-76
2021/07/12 10:40:10;;;;;;;8.18;2.40;;;32.60;41.20;;;;;;5093693;28;20035;-74
2021/07/12 10:42:41;;;;;;;7.50;2.75;;;32.60;40.70;;;;;;5093630;28;20032;-76
2021/07/12 10:45:29;;;;;;;9.70;2.60;;;32.60;40.90;;;;;;5093769;28;20095;-75
2021/07/12 10:47:57;;;;;;;11.23;2.50;;;32.60;42.10;;;;;;5093029;28;20032;-75
2021/07/12 10:50:42;;;;;;;8.40;2.58;;;32.70;40.70;;;;;;5093154;28;20047;-76
2021/07/12 10:53:14;;;;;;;10.32;2.72;;;32.70;41.20;;;;;;5093059;28;20445;-75
2021/07/12 10:56:03;;;;;;;13.35;2.78;;;32.70;39.70;;;;;;5093002;28;20028;-76
2021/07/12 10:58:34;;;;;;;8.40;2.70;;;32.70;39.40;;;;;;5092762;28;20059;-76
2021/07/12 11:01:07;;;;;;;9.52;2.67;;;32.70;39.70;;;;;;5092575;28;20040;-76
2021/07/12 11:03:55;;;;;;;10.52;2.88;;;32.80;39.60;;;;;;5093033;28;20073;-77
2021/07/12 11:06:27;;;;;;;8.55;2.80;;;32.90;41.20;;;;;;5092631;28;20056;-75
2021/07/12 11:08:57;;;;;;;7.13;2.40;;;33.00;39.90;;;;;;5093607;28;20084;-75
2021/07/12 11:11:23;;;;;;;11.55;2.80;;;33.10;39.90;;;;;;5093279;28;20399;-75
2021/07/12 11:14:06;;;;;;;10.63;2.75;;;33.20;40.10;;;;;;5092861;28;20028;-76
2021/07/12 11:16:47;;;;;;;10.38;2.45;;;33.20;40.00;;;;;;5091500;28;20434;-77
2021/07/12 11:19:31;;;;;;;9.90;2.70;;;33.20;40.00;;;;;;5092731;28;20077;-76
2021/07/12 11:22:15;;;;;;;7.45;1.92;;;33.30;38.80;;;;;;5092779;28;20032;-75
2021/07/12 11:24:59;;;;;;;8.02;2.47;;;33.30;38.30;;;;;;5091306;28;20441;-78
2021/07/12 11:27:46;;;;;;;7.10;2.30;;;33.40;38.00;;;;;;5092657;28;20028;-75
2021/07/12 11:30:29;;;;;;;5.88;2.50;;;33.50;38.00;;;;;;5092466;28;20027;-75
2021/07/12 11:32:55;;;;;;;6.95;2.60;;;33.60;37.10;;;;;;5093619;28;20070;-75
2021/07/12 11:35:23;;;;;;;8.30;2.83;;;33.60;37.30;;;;;;5094547;28;20024;-76
2021/07/12 11:37:49;;;;;;;6.78;2.50;;;33.60;37.50;;;;;;5091639;28;20465;-76
2021/07/12 11:40:17;;;;;;;7.22;2.60;;;33.60;37.60;;;;;;5092918;28;20028;-75
2021/07/12 11:42:43;;;;;;;8.90;2.72;;;33.70;38.00;;;;;;5093023;28;20028;-76
2021/07/12 11:45:18;;;;;;;7.68;2.67;;;33.70;38.20;;;;;;5092945;28;20016;-76
2021/07/12 11:47:55;;;;;;;6.72;2.90;;;33.80;40.70;;;;;;5091602;28;20381;-76
2021/07/12 11:50:22;;;;;;;8.27;2.90;;;33.80;44.50;;;;;;5093065;28;20020;-76
2021/07/12 11:52:54;;;;;;;8.43;3.20;;;33.80;45.40;;;;;;5092752;28;20043;-75
2021/07/12 11:55:26;;;;;;;5.25;2.60;;;33.80;46.90;;;;;;5092948;28;20481;-76
2021/07/12 11:57:57;;;;;;;9.82;2.47;;;33.80;47.60;;;;;;5092595;28;20028;-77
2021/07/12 12:00:25;;;;;;;10.05;2.45;;;33.80;48.50;;;;;;5092542;28;20024;-76
2021/07/12 12:03:04;;;;;;;7.85;2.75;;;33.80;49.60;;;;;;5093145;28;20025;-75
2021/07/12 12:05:33;;;;;;;11.05;3.35;;;33.80;48.90;;;;;;5092700;28;20074;-77
2021/07/12 12:08:00;;;;;;;10.00;2.67;;;33.70;50.80;;;;;;5092346;28;20481;-77
2021/07/12 12:10:29;;;;;;;6.40;2.58;;;33.70;50.60;;;;;;5091303;28;20441;-76
2021/07/12 12:12:59;;;;;;;9.20;2.45;;;33.70;51.10;;;;;;5092519;28;20024;-75
2021/07/12 12:15:39;;;;;;;7.97;2.97;;;33.70;51.30;;;;;;5092425;28;20036;-76
2021/07/12 12:18:16;;;;;;;8.55;2.80;;;33.70;51.90;;;;;;5092233;28;20043;-77
2021/07/12 12:20:55;;;;;;;8.18;2.90;;;33.60;51.60;;;;;;5092430;28;20043;-75
2021/07/12 12:23:24;;;;;;;11.65;2.70;;;33.60;49.50;;;;;;5092865;28;20016;-76
2021/07/12 12:26:13;;;;;;;8.50;2.72;;;33.70;50.70;;;;;;5092498;28;20103;-75
2021/07/12 12:28:54;;;;;;;13.23;3.28;;;33.70;51.50;;;;;;5092151;28;20480;-76
2021/07/12 12:31:28;;;;;;;12.38;3.10;;;33.70;49.90;;;;;;5092503;28;20020;-76
2021/07/12 12:34:10;;;;;;;12.80;3.15;;;33.80;49.80;;;;;;5092351;28;20024;-75
2021/07/12 12:36:44;;;;;;;9.48;2.80;;;33.80;49.90;;;;;;5090736;28;20082;-74
2021/07/12 12:39:21;;;;;;;6.93;2.67;;;33.80;52.00;;;;;;5090741;28;20024;-76
2021/07/12 12:41:58;;;;;;;12.90;2.78;;;33.80;52.50;;;;;;5092817;28;20039;-75
2021/07/12 12:44:34;;;;;;;13.13;2.80;;;33.90;52.60;;;;;;5095899;28;20031;-76
2021/07/12 12:47:00;;;;;;;22.40;3.15;;;33.90;52.30;;;;;;5095679;28;20062;-75
2021/07/12 12:49:29;;;;;;;12.90;2.13;;;34.00;51.90;;;;;;5095818;28;20024;-75
2021/07/12 12:51:56;;;;;;;14.18;3.33;;;34.00;51.80;;;;;;5095564;28;20353;-74
2021/07/12 12:54:29;;;;;;;11.70;2.72;;;33.90;52.60;;;;;;5095405;28;20028;-76
2021/07/12 12:56:55;;;;;;;8.75;2.70;;;33.90;53.30;;;;;;5095597;28;20032;-76